sensor_id;sensor_type;location;lat;lon;timestamp;P1;durP1;ratioP1;P2;durP2;ratioP2
19867;SDS011;10096;51.112;6.776;2023-08-17T00:01:32;9.05;;;7.90;;
19867;SDS011;10096;51.112;6.776;2023-08-17T00:04:09;9.18;;;8.38;;
19867;SDS011;10096;51.112;6.776;2023-08-17T00:06:53;8.60;;;7.78;;
19867;SDS011;10096;51.112;6.776;2023-08-17T00:09:48;9.02;;;8.13;;
19867;SDS011;10096;51.112;6.776;2023-08-17T00:12:15;9.20;;;8.30;;
19867;SDS011;10096;51.112;6.776;2023-08-17T00:14:51;8.48;;;7.55;;
19867;SDS011;10096;51.112;6.776;2023-08-17T00:17:28;9.30;;;7.68;;
19867;SDS011;10096;51.112;6.776;2023-08-17T00:20:03;9.15;;;8.13;;
19867;SDS011;10096;51.112;6.776;2023-08-17T00:22:43;9.30;;;8.38;;
19867;SDS011;10096;51.112;6.776;2023-08-17T00:25:20;9.75;;;8.55;;
19867;SDS011;10096;51.112;6.776;2023-08-17T00:27:59;8.73;;;7.93;;
19867;SDS011;10096;51.112;6.776;2023-08-17T00:30:29;9.45;;;8.55;;
19867;SDS011;10096;51.112;6.776;2023-08-17T00:33:04;8.65;;;7.95;;
19867;SDS011;10096;51.112;6.776;2023-08-17T00:35:40;10.15;;;9.15;;
19867;SDS011;10096;51.112;6.776;2023-08-17T00:38:27;9.85;;;8.88;;
19867;SDS011;10096;51.112;6.776;2023-08-17T00:41:01;10.60;;;9.60;;
19867;SDS011;10096;51.112;6.776;2023-08-17T00:43:32;10.07;;;9.18;;
19867;SDS011;10096;51.112;6.776;2023-08-17T00:46:04;10.93;;;10.13;;
19867;SDS011;10096;51.112;6.776;2023-08-17T00:48:42;10.77;;;9.98;;
19867;SDS011;10096;51.112;6.776;2023-08-17T00:51:19;10.73;;;9.77;;
19867;SDS011;10096;51.112;6.776;2023-08-17T00:53:52;11.52;;;10.63;;
19867;SDS011;10096;51.112;6.776;2023-08-17T00:56:28;11.40;;;10.35;;
19867;SDS011;10096;51.112;6.776;2023-08-17T00:59:05;12.23;;;11.25;;
19867;SDS011;10096;51.112;6.776;2023-08-17T01:01:34;11.55;;;10.65;;
19867;SDS011;10096;51.112;6.776;2023-08-17T01:04:17;10.73;;;9.90;;
19867;SDS011;10096;51.112;6.776;2023-08-17T01:06:44;11.75;;;10.65;;
19867;SDS011;10096;51.112;6.776;2023-08-17T01:09:11;10.93;;;9.95;;
19867;SDS011;10096;51.112;6.776;2023-08-17T01:11:45;11.20;;;10.13;;
19867;SDS011;10096;51.112;6.776;2023-08-17T01:14:21;11.20;;;10.27;;
19867;SDS011;10096;51.112;6.776;2023-08-17T01:16:56;11.05;;;10.15;;
19867;SDS011;10096;51.112;6.776;2023-08-17T01:19:38;11.57;;;10.57;;
19867;SDS011;10096;51.112;6.776;2023-08-17T01:22:09;11.35;;;10.25;;
19867;SDS011;10096;51.112;6.776;2023-08-17T01:24:42;10.82;;;10.02;;
19867;SDS011;10096;51.112;6.776;2023-08-17T01:27:09;11.00;;;10.00;;
19867;SDS011;10096;51.112;6.776;2023-08-17T01:29:36;11.73;;;10.57;;
19867;SDS011;10096;51.112;6.776;2023-08-17T01:32:07;11.90;;;10.82;;
19867;SDS011;10096;51.112;6.776;2023-08-17T01:34:51;13.55;;;10.98;;
19867;SDS011;10096;51.112;6.776;2023-08-17T01:37:26;10.32;;;9.32;;
19867;SDS011;10096;51.112;6.776;2023-08-17T01:39:59;10.43;;;9.38;;
19867;SDS011;10096;51.112;6.776;2023-08-17T01:42:27;11.27;;;9.90;;
19867;SDS011;10096;51.112;6.776;2023-08-17T01:45:00;9.73;;;8.85;;
19867;SDS011;10096;51.112;6.776;2023-08-17T01:47:28;10.98;;;9.88;;
19867;SDS011;10096;51.112;6.776;2023-08-17T01:49:56;9.80;;;8.80;;
19867;SDS011;10096;51.112;6.776;2023-08-17T01:52:26;10.10;;;9.18;;
19867;SDS011;10096;51.112;6.776;2023-08-17T01:55:02;9.25;;;8.38;;
19867;SDS011;10096;51.112;6.776;2023-08-17T01:57:29;9.57;;;8.57;;
19867;SDS011;10096;51.112;6.776;2023-08-17T01:59:56;9.65;;;8.73;;
19867;SDS011;10096;51.112;6.776;2023-08-17T02:02:22;10.43;;;9.43;;
19867;SDS011;10096;51.112;6.776;2023-08-17T02:04:52;12.25;;;10.00;;
19867;SDS011;10096;51.112;6.776;2023-08-17T02:07:19;10.20;;;9.30;;
19867;SDS011;10096;51.112;6.776;2023-08-17T02:09:46;9.70;;;8.75;;
19867;SDS011;10096;51.112;6.776;2023-08-17T02:12:14;9.90;;;9.02;;
19867;SDS011;10096;51.112;6.776;2023-08-17T02:14:41;9.88;;;8.93;;
19867;SDS011;10096;51.112;6.776;2023-08-17T02:17:08;10.13;;;9.27;;
19867;SDS011;10096;51.112;6.776;2023-08-17T02:19:35;9.85;;;8.85;;
19867;SDS011;10096;51.112;6.776;2023-08-17T02:22:02;9.85;;;9.02;;
19867;SDS011;10096;51.112;6.776;2023-08-17T02:24:30;9.77;;;8.80;;
19867;SDS011;10096;51.112;6.776;2023-08-17T02:26:57;9.20;;;8.30;;
19867;SDS011;10096;51.112;6.776;2023-08-17T02:29:25;9.35;;;8.55;;
19867;SDS011;10096;51.112;6.776;2023-08-17T02:31:52;9.40;;;8.40;;
19867;SDS011;10096;51.112;6.776;2023-08-17T02:34:19;8.82;;;7.88;;
19867;SDS011;10096;51.112;6.776;2023-08-17T02:36:46;8.90;;;7.85;;
19867;SDS011;10096;51.112;6.776;2023-08-17T02:39:20;9.05;;;8.15;;
19867;SDS011;10096;51.112;6.776;2023-08-17T02:41:47;10.60;;;8.70;;
19867;SDS011;10096;51.112;6.776;2023-08-17T02:44:15;9.20;;;8.30;;
19867;SDS011;10096;51.112;6.776;2023-08-17T02:46:43;9.95;;;8.95;;
19867;SDS011;10096;51.112;6.776;2023-08-17T02:49:10;10.95;;;8.90;;
19867;SDS011;10096;51.112;6.776;2023-08-17T02:51:37;9.20;;;8.43;;
19867;SDS011;10096;51.112;6.776;2023-08-17T02:54:04;10.00;;;8.98;;
19867;SDS011;10096;51.112;6.776;2023-08-17T02:56:33;9.43;;;8.52;;
19867;SDS011;10096;51.112;6.776;2023-08-17T02:59:00;9.05;;;8.13;;
19867;SDS011;10096;51.112;6.776;2023-08-17T03:01:27;8.65;;;7.85;;
19867;SDS011;10096;51.112;6.776;2023-08-17T03:03:56;8.93;;;8.00;;
19867;SDS011;10096;51.112;6.776;2023-08-17T03:06:23;8.20;;;7.50;;
19867;SDS011;10096;51.112;6.776;2023-08-17T03:08:50;10.32;;;8.02;;
19867;SDS011;10096;51.112;6.776;2023-08-17T03:11:20;8.57;;;7.78;;
19867;SDS011;10096;51.112;6.776;2023-08-17T03:13:47;9.48;;;8.43;;
19867;SDS011;10096;51.112;6.776;2023-08-17T03:16:14;11.07;;;9.80;;
19867;SDS011;10096;51.112;6.776;2023-08-17T03:18:41;10.27;;;9.43;;
19867;SDS011;10096;51.112;6.776;2023-08-17T03:21:09;10.23;;;9.10;;
19867;SDS011;10096;51.112;6.776;2023-08-17T03:23:37;10.27;;;8.70;;
19867;SDS011;10096;51.112;6.776;2023-08-17T03:26:03;9.38;;;8.57;;
19867;SDS011;10096;51.112;6.776;2023-08-17T03:28:30;11.60;;;10.32;;
19867;SDS011;10096;51.112;6.776;2023-08-17T03:30:57;10.32;;;9.32;;
19867;SDS011;10096;51.112;6.776;2023-08-17T03:33:24;10.48;;;9.48;;
19867;SDS011;10096;51.112;6.776;2023-08-17T03:35:51;9.85;;;8.95;;
19867;SDS011;10096;51.112;6.776;2023-08-17T03:38:20;10.02;;;9.10;;
19867;SDS011;10096;51.112;6.776;2023-08-17T03:40:47;10.20;;;8.82;;
19867;SDS011;10096;51.112;6.776;2023-08-17T03:43:14;9.85;;;8.48;;
19867;SDS011;10096;51.112;6.776;2023-08-17T03:45:41;10.25;;;9.25;;
19867;SDS011;10096;51.112;6.776;2023-08-17T03:48:08;9.35;;;8.38;;
19867;SDS011;10096;51.112;6.776;2023-08-17T03:50:36;10.43;;;8.77;;
19867;SDS011;10096;51.112;6.776;2023-08-17T03:53:05;9.90;;;9.00;;
19867;SDS011;10096;51.112;6.776;2023-08-17T03:55:35;9.95;;;8.95;;
19867;SDS011;10096;51.112;6.776;2023-08-17T03:58:03;10.95;;;9.48;;
19867;SDS011;10096;51.112;6.776;2023-08-17T04:00:30;10.45;;;9.07;;
19867;SDS011;10096;51.112;6.776;2023-08-17T04:02:57;11.23;;;10.13;;
19867;SDS011;10096;51.112;6.776;2023-08-17T04:05:23;12.77;;;11.52;;
19867;SDS011;10096;51.112;6.776;2023-08-17T04:07:50;12.48;;;11.18;;
19867;SDS011;10096;51.112;6.776;2023-08-17T04:10:17;12.65;;;11.43;;
19867;SDS011;10096;51.112;6.776;2023-08-17T04:12:46;13.68;;;12.45;;
19867;SDS011;10096;51.112;6.776;2023-08-17T04:15:12;14.20;;;12.77;;
19867;SDS011;10096;51.112;6.776;2023-08-17T04:17:41;15.27;;;13.65;;
19867;SDS011;10096;51.112;6.776;2023-08-17T04:20:08;16.98;;;15.25;;
19867;SDS011;10096;51.112;6.776;2023-08-17T04:22:36;17.55;;;15.75;;
19867;SDS011;10096;51.112;6.776;2023-08-17T04:25:03;18.00;;;16.02;;
19867;SDS011;10096;51.112;6.776;2023-08-17T04:27:31;18.08;;;16.25;;
19867;SDS011;10096;51.112;6.776;2023-08-17T04:30:00;18.48;;;16.58;;
19867;SDS011;10096;51.112;6.776;2023-08-17T04:32:27;18.88;;;16.98;;
19867;SDS011;10096;51.112;6.776;2023-08-17T04:34:54;19.48;;;17.58;;
19867;SDS011;10096;51.112;6.776;2023-08-17T04:37:21;20.88;;;18.67;;
19867;SDS011;10096;51.112;6.776;2023-08-17T04:39:48;20.95;;;18.70;;
19867;SDS011;10096;51.112;6.776;2023-08-17T04:42:16;21.83;;;19.63;;
19867;SDS011;10096;51.112;6.776;2023-08-17T04:44:44;23.02;;;19.63;;
19867;SDS011;10096;51.112;6.776;2023-08-17T04:47:13;21.02;;;18.95;;
19867;SDS011;10096;51.112;6.776;2023-08-17T04:49:40;21.50;;;19.25;;
19867;SDS011;10096;51.112;6.776;2023-08-17T04:52:07;21.05;;;18.92;;
19867;SDS011;10096;51.112;6.776;2023-08-17T04:54:34;21.88;;;19.52;;
19867;SDS011;10096;51.112;6.776;2023-08-17T04:57:01;21.73;;;19.65;;
19867;SDS011;10096;51.112;6.776;2023-08-17T04:59:29;18.85;;;16.92;;
19867;SDS011;10096;51.112;6.776;2023-08-17T05:01:56;18.13;;;16.10;;
19867;SDS011;10096;51.112;6.776;2023-08-17T05:04:24;17.30;;;15.60;;
19867;SDS011;10096;51.112;6.776;2023-08-17T05:06:51;18.15;;;15.40;;
19867;SDS011;10096;51.112;6.776;2023-08-17T05:09:18;15.90;;;13.77;;
19867;SDS011;10096;51.112;6.776;2023-08-17T05:11:45;14.73;;;12.43;;
19867;SDS011;10096;51.112;6.776;2023-08-17T05:14:12;14.13;;;12.73;;
19867;SDS011;10096;51.112;6.776;2023-08-17T05:16:39;14.48;;;13.07;;
19867;SDS011;10096;51.112;6.776;2023-08-17T05:19:06;16.98;;;12.13;;
19867;SDS011;10096;51.112;6.776;2023-08-17T05:21:35;13.50;;;12.10;;
19867;SDS011;10096;51.112;6.776;2023-08-17T05:24:02;11.52;;;10.43;;
19867;SDS011;10096;51.112;6.776;2023-08-17T05:26:30;12.50;;;11.30;;
19867;SDS011;10096;51.112;6.776;2023-08-17T05:28:57;12.65;;;11.43;;
19867;SDS011;10096;51.112;6.776;2023-08-17T05:31:24;12.55;;;11.25;;
19867;SDS011;10096;51.112;6.776;2023-08-17T05:33:50;12.65;;;11.35;;
19867;SDS011;10096;51.112;6.776;2023-08-17T05:36:17;12.07;;;11.00;;
19867;SDS011;10096;51.112;6.776;2023-08-17T05:38:50;13.90;;;11.13;;
19867;SDS011;10096;51.112;6.776;2023-08-17T05:41:17;17.13;;;12.18;;
19867;SDS011;10096;51.112;6.776;2023-08-17T05:43:44;14.23;;;12.68;;
19867;SDS011;10096;51.112;6.776;2023-08-17T05:46:11;13.63;;;12.30;;
19867;SDS011;10096;51.112;6.776;2023-08-17T05:48:38;13.82;;;12.52;;
19867;SDS011;10096;51.112;6.776;2023-08-17T05:51:06;12.85;;;11.65;;
19867;SDS011;10096;51.112;6.776;2023-08-17T05:53:33;14.68;;;12.82;;
19867;SDS011;10096;51.112;6.776;2023-08-17T05:56:01;16.80;;;13.30;;
19867;SDS011;10096;51.112;6.776;2023-08-17T05:58:29;16.38;;;14.70;;
19867;SDS011;10096;51.112;6.776;2023-08-17T06:01:03;14.75;;;13.02;;
19867;SDS011;10096;51.112;6.776;2023-08-17T06:03:31;15.05;;;13.55;;
19867;SDS011;10096;51.112;6.776;2023-08-17T06:06:01;14.52;;;12.93;;
19867;SDS011;10096;51.112;6.776;2023-08-17T06:08:35;13.95;;;12.48;;
19867;SDS011;10096;51.112;6.776;2023-08-17T06:11:03;14.32;;;12.82;;
19867;SDS011;10096;51.112;6.776;2023-08-17T06:13:30;13.13;;;11.75;;
19867;SDS011;10096;51.112;6.776;2023-08-17T06:15:57;12.80;;;11.65;;
19867;SDS011;10096;51.112;6.776;2023-08-17T06:18:24;13.00;;;11.80;;
19867;SDS011;10096;51.112;6.776;2023-08-17T06:20:51;13.48;;;12.15;;
19867;SDS011;10096;51.112;6.776;2023-08-17T06:23:18;11.90;;;10.80;;
19867;SDS011;10096;51.112;6.776;2023-08-17T06:25:45;13.23;;;11.90;;
19867;SDS011;10096;51.112;6.776;2023-08-17T06:28:14;13.02;;;11.82;;
19867;SDS011;10096;51.112;6.776;2023-08-17T06:30:40;13.05;;;11.77;;
19867;SDS011;10096;51.112;6.776;2023-08-17T06:33:07;13.25;;;12.02;;
19867;SDS011;10096;51.112;6.776;2023-08-17T06:35:34;12.75;;;11.38;;
19867;SDS011;10096;51.112;6.776;2023-08-17T06:38:01;13.48;;;12.18;;
19867;SDS011;10096;51.112;6.776;2023-08-17T06:40:28;13.20;;;12.00;;
19867;SDS011;10096;51.112;6.776;2023-08-17T06:42:55;13.88;;;12.50;;
19867;SDS011;10096;51.112;6.776;2023-08-17T06:45:23;12.93;;;11.60;;
19867;SDS011;10096;51.112;6.776;2023-08-17T06:47:51;14.27;;;12.77;;
19867;SDS011;10096;51.112;6.776;2023-08-17T06:50:18;13.10;;;11.80;;
19867;SDS011;10096;51.112;6.776;2023-08-17T06:52:45;11.82;;;10.75;;
19867;SDS011;10096;51.112;6.776;2023-08-17T06:55:14;13.40;;;11.88;;
19867;SDS011;10096;51.112;6.776;2023-08-17T06:57:42;13.60;;;12.20;;
19867;SDS011;10096;51.112;6.776;2023-08-17T07:00:11;13.55;;;11.93;;
19867;SDS011;10096;51.112;6.776;2023-08-17T07:02:41;13.32;;;12.10;;
19867;SDS011;10096;51.112;6.776;2023-08-17T07:05:08;12.70;;;11.35;;
19867;SDS011;10096;51.112;6.776;2023-08-17T07:07:41;13.00;;;11.75;;
19867;SDS011;10096;51.112;6.776;2023-08-17T07:10:11;14.82;;;11.57;;
19867;SDS011;10096;51.112;6.776;2023-08-17T07:12:38;13.73;;;12.48;;
19867;SDS011;10096;51.112;6.776;2023-08-17T07:15:06;13.68;;;12.45;;
19867;SDS011;10096;51.112;6.776;2023-08-17T07:17:33;15.23;;;11.70;;
19867;SDS011;10096;51.112;6.776;2023-08-17T07:20:03;12.30;;;11.10;;
19867;SDS011;10096;51.112;6.776;2023-08-17T07:22:35;12.32;;;11.13;;
19867;SDS011;10096;51.112;6.776;2023-08-17T07:25:02;14.15;;;10.98;;
19867;SDS011;10096;51.112;6.776;2023-08-17T07:27:29;13.32;;;12.00;;
19867;SDS011;10096;51.112;6.776;2023-08-17T07:29:56;15.30;;;12.90;;
19867;SDS011;10096;51.112;6.776;2023-08-17T07:32:24;13.07;;;11.73;;
19867;SDS011;10096;51.112;6.776;2023-08-17T07:34:51;12.93;;;11.63;;
19867;SDS011;10096;51.112;6.776;2023-08-17T07:37:20;16.45;;;12.63;;
19867;SDS011;10096;51.112;6.776;2023-08-17T07:39:47;12.07;;;10.93;;
19867;SDS011;10096;51.112;6.776;2023-08-17T07:42:15;12.18;;;11.07;;
19867;SDS011;10096;51.112;6.776;2023-08-17T07:44:42;12.60;;;11.02;;
19867;SDS011;10096;51.112;6.776;2023-08-17T07:47:10;12.05;;;10.95;;
19867;SDS011;10096;51.112;6.776;2023-08-17T07:49:37;13.18;;;11.77;;
19867;SDS011;10096;51.112;6.776;2023-08-17T07:52:04;12.85;;;11.63;;
19867;SDS011;10096;51.112;6.776;2023-08-17T07:54:33;13.60;;;12.30;;
19867;SDS011;10096;51.112;6.776;2023-08-17T07:57:00;13.43;;;12.02;;
19867;SDS011;10096;51.112;6.776;2023-08-17T07:59:29;12.93;;;11.60;;
19867;SDS011;10096;51.112;6.776;2023-08-17T08:01:56;12.80;;;11.40;;
19867;SDS011;10096;51.112;6.776;2023-08-17T08:04:23;14.80;;;13.30;;
19867;SDS011;10096;51.112;6.776;2023-08-17T08:06:50;12.93;;;11.73;;
19867;SDS011;10096;51.112;6.776;2023-08-17T08:09:17;12.95;;;11.75;;
19867;SDS011;10096;51.112;6.776;2023-08-17T08:11:46;12.43;;;11.32;;
19867;SDS011;10096;51.112;6.776;2023-08-17T08:14:12;13.65;;;12.35;;
19867;SDS011;10096;51.112;6.776;2023-08-17T08:16:39;12.63;;;11.52;;
19867;SDS011;10096;51.112;6.776;2023-08-17T08:19:06;13.93;;;12.73;;
19867;SDS011;10096;51.112;6.776;2023-08-17T08:21:33;14.50;;;13.00;;
19867;SDS011;10096;51.112;6.776;2023-08-17T08:24:00;14.35;;;13.05;;
19867;SDS011;10096;51.112;6.776;2023-08-17T08:26:27;14.65;;;13.23;;
19867;SDS011;10096;51.112;6.776;2023-08-17T08:28:56;15.07;;;13.73;;
19867;SDS011;10096;51.112;6.776;2023-08-17T08:31:29;12.85;;;11.48;;
19867;SDS011;10096;51.112;6.776;2023-08-17T08:33:56;12.80;;;11.60;;
19867;SDS011;10096;51.112;6.776;2023-08-17T08:36:24;15.85;;;14.25;;
19867;SDS011;10096;51.112;6.776;2023-08-17T08:38:51;15.35;;;13.85;;
19867;SDS011;10096;51.112;6.776;2023-08-17T08:41:18;13.93;;;12.63;;
19867;SDS011;10096;51.112;6.776;2023-08-17T08:43:46;14.13;;;12.85;;
19867;SDS011;10096;51.112;6.776;2023-08-17T08:46:14;13.23;;;11.95;;
19867;SDS011;10096;51.112;6.776;2023-08-17T08:48:47;12.40;;;11.10;;
19867;SDS011;10096;51.112;6.776;2023-08-17T08:51:17;15.60;;;12.30;;
19867;SDS011;10096;51.112;6.776;2023-08-17T08:53:51;13.65;;;12.35;;
19867;SDS011;10096;51.112;6.776;2023-08-17T08:56:28;11.75;;;10.65;;
19867;SDS011;10096;51.112;6.776;2023-08-17T08:58:59;11.50;;;10.38;;
19867;SDS011;10096;51.112;6.776;2023-08-17T09:01:30;12.98;;;11.65;;
19867;SDS011;10096;51.112;6.776;2023-08-17T09:03:58;12.52;;;11.43;;
19867;SDS011;10096;51.112;6.776;2023-08-17T09:06:26;14.77;;;13.27;;
19867;SDS011;10096;51.112;6.776;2023-08-17T09:08:55;14.63;;;13.30;;
19867;SDS011;10096;51.112;6.776;2023-08-17T09:11:23;17.23;;;13.93;;
19867;SDS011;10096;51.112;6.776;2023-08-17T09:13:52;16.30;;;14.68;;
19867;SDS011;10096;51.112;6.776;2023-08-17T09:16:19;16.17;;;14.70;;
19867;SDS011;10096;51.112;6.776;2023-08-17T09:18:48;16.55;;;14.18;;
19867;SDS011;10096;51.112;6.776;2023-08-17T09:21:22;15.48;;;13.98;;
19867;SDS011;10096;51.112;6.776;2023-08-17T09:23:50;14.60;;;13.30;;
19867;SDS011;10096;51.112;6.776;2023-08-17T09:26:18;15.43;;;13.93;;
19867;SDS011;10096;51.112;6.776;2023-08-17T09:28:47;17.10;;;13.88;;
19867;SDS011;10096;51.112;6.776;2023-08-17T09:31:14;15.02;;;12.43;;
19867;SDS011;10096;51.112;6.776;2023-08-17T09:33:41;15.27;;;13.80;;
19867;SDS011;10096;51.112;6.776;2023-08-17T09:36:14;18.80;;;16.80;;
19867;SDS011;10096;51.112;6.776;2023-08-17T09:38:41;17.80;;;16.00;;
19867;SDS011;10096;51.112;6.776;2023-08-17T09:41:08;15.25;;;13.70;;
19867;SDS011;10096;51.112;6.776;2023-08-17T09:43:36;12.68;;;11.48;;
19867;SDS011;10096;51.112;6.776;2023-08-17T09:46:03;12.73;;;11.52;;
19867;SDS011;10096;51.112;6.776;2023-08-17T09:48:32;14.95;;;13.52;;
19867;SDS011;10096;51.112;6.776;2023-08-17T09:50:59;15.05;;;13.45;;
19867;SDS011;10096;51.112;6.776;2023-08-17T09:53:28;13.20;;;11.82;;
19867;SDS011;10096;51.112;6.776;2023-08-17T09:55:58;14.88;;;13.10;;
19867;SDS011;10096;51.112;6.776;2023-08-17T09:58:26;13.05;;;11.73;;
19867;SDS011;10096;51.112;6.776;2023-08-17T10:00:53;14.65;;;11.60;;
19867;SDS011;10096;51.112;6.776;2023-08-17T10:03:21;13.05;;;11.73;;
19867;SDS011;10096;51.112;6.776;2023-08-17T10:05:58;13.68;;;12.38;;
19867;SDS011;10096;51.112;6.776;2023-08-17T10:08:31;15.32;;;13.20;;
19867;SDS011;10096;51.112;6.776;2023-08-17T10:11:02;17.63;;;14.15;;
19867;SDS011;10096;51.112;6.776;2023-08-17T10:13:35;16.45;;;13.93;;
19867;SDS011;10096;51.112;6.776;2023-08-17T10:16:07;15.48;;;13.98;;
19867;SDS011;10096;51.112;6.776;2023-08-17T10:18:54;15.32;;;13.73;;
19867;SDS011;10096;51.112;6.776;2023-08-17T10:21:25;14.68;;;13.27;;
19867;SDS011;10096;51.112;6.776;2023-08-17T10:23:56;15.23;;;13.82;;
19867;SDS011;10096;51.112;6.776;2023-08-17T10:26:24;20.48;;;15.98;;
19867;SDS011;10096;51.112;6.776;2023-08-17T10:28:51;15.55;;;14.15;;
19867;SDS011;10096;51.112;6.776;2023-08-17T10:31:23;16.08;;;14.45;;
19867;SDS011;10096;51.112;6.776;2023-08-17T10:33:50;15.93;;;14.32;;
19867;SDS011;10096;51.112;6.776;2023-08-17T10:36:17;16.38;;;14.75;;
19867;SDS011;10096;51.112;6.776;2023-08-17T10:41:50;14.55;;;13.23;;
19867;SDS011;10096;51.112;6.776;2023-08-17T10:44:18;15.63;;;14.07;;
19867;SDS011;10096;51.112;6.776;2023-08-17T10:47:19;16.60;;;15.00;;
19867;SDS011;10096;51.112;6.776;2023-08-17T10:49:48;15.10;;;13.80;;
19867;SDS011;10096;51.112;6.776;2023-08-17T10:52:18;15.93;;;13.75;;
19867;SDS011;10096;51.112;6.776;2023-08-17T10:54:52;15.80;;;14.20;;
19867;SDS011;10096;51.112;6.776;2023-08-17T10:57:35;14.30;;;12.90;;
19867;SDS011;10096;51.112;6.776;2023-08-17T11:02:52;14.23;;;12.85;;
19867;SDS011;10096;51.112;6.776;2023-08-17T11:05:36;13.88;;;12.52;;
19867;SDS011;10096;51.112;6.776;2023-08-17T11:08:04;13.45;;;12.20;;
19867;SDS011;10096;51.112;6.776;2023-08-17T11:10:32;14.02;;;12.82;;
19867;SDS011;10096;51.112;6.776;2023-08-17T11:13:01;14.93;;;13.43;;
19867;SDS011;10096;51.112;6.776;2023-08-17T11:15:34;14.10;;;12.65;;
19867;SDS011;10096;51.112;6.776;2023-08-17T11:18:07;12.77;;;11.68;;
19867;SDS011;10096;51.112;6.776;2023-08-17T11:20:35;13.60;;;12.20;;
19867;SDS011;10096;51.112;6.776;2023-08-17T11:23:04;14.50;;;12.98;;
19867;SDS011;10096;51.112;6.776;2023-08-17T11:25:34;14.05;;;12.65;;
19867;SDS011;10096;51.112;6.776;2023-08-17T11:28:03;13.27;;;12.02;;
19867;SDS011;10096;51.112;6.776;2023-08-17T11:30:32;13.02;;;11.73;;
19867;SDS011;10096;51.112;6.776;2023-08-17T11:33:01;13.75;;;12.50;;
19867;SDS011;10096;51.112;6.776;2023-08-17T11:35:28;15.15;;;13.68;;
19867;SDS011;10096;51.112;6.776;2023-08-17T11:37:55;15.50;;;14.10;;
19867;SDS011;10096;51.112;6.776;2023-08-17T11:40:22;14.88;;;13.32;;
19867;SDS011;10096;51.112;6.776;2023-08-17T11:42:49;16.30;;;14.75;;
19867;SDS011;10096;51.112;6.776;2023-08-17T11:45:18;15.60;;;14.10;;
19867;SDS011;10096;51.112;6.776;2023-08-17T11:47:46;15.70;;;14.13;;
19867;SDS011;10096;51.112;6.776;2023-08-17T11:50:16;14.65;;;13.25;;
19867;SDS011;10096;51.112;6.776;2023-08-17T11:52:44;16.33;;;14.73;;
19867;SDS011;10096;51.112;6.776;2023-08-17T11:55:13;15.23;;;13.30;;
19867;SDS011;10096;51.112;6.776;2023-08-17T11:57:46;15.50;;;14.07;;
19867;SDS011;10096;51.112;6.776;2023-08-17T12:03:37;14.68;;;13.23;;
19867;SDS011;10096;51.112;6.776;2023-08-17T12:06:05;13.93;;;12.57;;
19867;SDS011;10096;51.112;6.776;2023-08-17T12:09:10;13.48;;;12.13;;
19867;SDS011;10096;51.112;6.776;2023-08-17T12:11:54;13.98;;;12.68;;
19867;SDS011;10096;51.112;6.776;2023-08-17T12:14:26;15.35;;;13.80;;
19867;SDS011;10096;51.112;6.776;2023-08-17T12:16:53;16.63;;;12.00;;
19867;SDS011;10096;51.112;6.776;2023-08-17T12:19:26;14.30;;;13.00;;
19867;SDS011;10096;51.112;6.776;2023-08-17T12:22:10;12.93;;;11.82;;
19867;SDS011;10096;51.112;6.776;2023-08-17T12:24:42;13.27;;;11.98;;
19867;SDS011;10096;51.112;6.776;2023-08-17T12:27:11;12.70;;;11.60;;
19867;SDS011;10096;51.112;6.776;2023-08-17T12:29:50;16.08;;;14.43;;
19867;SDS011;10096;51.112;6.776;2023-08-17T12:32:18;15.88;;;14.25;;
19867;SDS011;10096;51.112;6.776;2023-08-17T12:34:47;15.73;;;14.30;;
19867;SDS011;10096;51.112;6.776;2023-08-17T12:37:18;14.30;;;12.90;;
19867;SDS011;10096;51.112;6.776;2023-08-17T12:39:46;15.25;;;13.93;;
19867;SDS011;10096;51.112;6.776;2023-08-17T12:42:13;14.77;;;13.35;;
19867;SDS011;10096;51.112;6.776;2023-08-17T12:44:42;13.63;;;12.23;;
19867;SDS011;10096;51.112;6.776;2023-08-17T12:47:09;15.32;;;14.02;;
19867;SDS011;10096;51.112;6.776;2023-08-17T12:49:37;13.82;;;12.60;;
19867;SDS011;10096;51.112;6.776;2023-08-17T12:52:08;14.88;;;13.48;;
19867;SDS011;10096;51.112;6.776;2023-08-17T12:54:35;15.07;;;13.52;;
19867;SDS011;10096;51.112;6.776;2023-08-17T12:57:03;22.80;;;20.98;;
19867;SDS011;10096;51.112;6.776;2023-08-17T12:59:32;14.88;;;13.63;;
19867;SDS011;10096;51.112;6.776;2023-08-17T13:01:59;13.60;;;12.13;;
19867;SDS011;10096;51.112;6.776;2023-08-17T13:04:27;14.73;;;13.23;;
19867;SDS011;10096;51.112;6.776;2023-08-17T13:06:54;13.45;;;12.25;;
19867;SDS011;10096;51.112;6.776;2023-08-17T13:09:22;13.65;;;12.45;;
19867;SDS011;10096;51.112;6.776;2023-08-17T13:11:50;13.48;;;12.27;;
19867;SDS011;10096;51.112;6.776;2023-08-17T13:14:17;13.00;;;11.77;;
19867;SDS011;10096;51.112;6.776;2023-08-17T13:16:44;12.07;;;10.98;;
19867;SDS011;10096;51.112;6.776;2023-08-17T13:19:10;12.18;;;11.07;;
19867;SDS011;10096;51.112;6.776;2023-08-17T13:21:37;11.18;;;10.18;;
19867;SDS011;10096;51.112;6.776;2023-08-17T13:24:05;12.43;;;11.23;;
19867;SDS011;10096;51.112;6.776;2023-08-17T13:26:34;11.88;;;10.88;;
19867;SDS011;10096;51.112;6.776;2023-08-17T13:29:01;11.70;;;10.63;;
19867;SDS011;10096;51.112;6.776;2023-08-17T13:31:31;12.20;;;11.10;;
19867;SDS011;10096;51.112;6.776;2023-08-17T13:33:58;11.65;;;10.65;;
19867;SDS011;10096;51.112;6.776;2023-08-17T13:36:25;12.48;;;11.27;;
19867;SDS011;10096;51.112;6.776;2023-08-17T13:38:53;13.88;;;12.10;;
19867;SDS011;10096;51.112;6.776;2023-08-17T13:41:23;11.40;;;10.38;;
19867;SDS011;10096;51.112;6.776;2023-08-17T13:43:51;13.63;;;12.23;;
19867;SDS011;10096;51.112;6.776;2023-08-17T13:46:19;14.38;;;12.93;;
19867;SDS011;10096;51.112;6.776;2023-08-17T13:48:46;14.05;;;12.75;;
19867;SDS011;10096;51.112;6.776;2023-08-17T13:51:13;13.88;;;12.50;;
19867;SDS011;10096;51.112;6.776;2023-08-17T13:53:40;12.50;;;11.50;;
19867;SDS011;10096;51.112;6.776;2023-08-17T13:56:07;14.32;;;13.10;;
19867;SDS011;10096;51.112;6.776;2023-08-17T13:58:35;15.82;;;14.23;;
19867;SDS011;10096;51.112;6.776;2023-08-17T14:01:03;15.18;;;13.68;;
19867;SDS011;10096;51.112;6.776;2023-08-17T14:03:30;15.40;;;14.00;;
19867;SDS011;10096;51.112;6.776;2023-08-17T14:05:57;13.75;;;12.45;;
19867;SDS011;10096;51.112;6.776;2023-08-17T14:08:24;14.43;;;13.23;;
19867;SDS011;10096;51.112;6.776;2023-08-17T14:10:51;14.18;;;12.98;;
19867;SDS011;10096;51.112;6.776;2023-08-17T14:13:18;13.98;;;12.68;;
19867;SDS011;10096;51.112;6.776;2023-08-17T14:15:46;13.95;;;12.55;;
19867;SDS011;10096;51.112;6.776;2023-08-17T14:18:15;15.27;;;13.75;;
19867;SDS011;10096;51.112;6.776;2023-08-17T14:20:42;15.10;;;13.82;;
19867;SDS011;10096;51.112;6.776;2023-08-17T14:23:10;15.13;;;13.73;;
19867;SDS011;10096;51.112;6.776;2023-08-17T14:25:37;16.08;;;13.82;;
19867;SDS011;10096;51.112;6.776;2023-08-17T14:28:06;13.95;;;12.77;;
19867;SDS011;10096;51.112;6.776;2023-08-17T14:30:33;14.90;;;13.60;;
19867;SDS011;10096;51.112;6.776;2023-08-17T14:33:01;15.07;;;13.55;;
19867;SDS011;10096;51.112;6.776;2023-08-17T14:35:30;13.05;;;11.95;;
19867;SDS011;10096;51.112;6.776;2023-08-17T14:37:57;13.55;;;12.45;;
19867;SDS011;10096;51.112;6.776;2023-08-17T14:40:25;14.40;;;13.00;;
19867;SDS011;10096;51.112;6.776;2023-08-17T14:42:53;13.25;;;11.95;;
19867;SDS011;10096;51.112;6.776;2023-08-17T14:45:20;13.90;;;12.68;;
19867;SDS011;10096;51.112;6.776;2023-08-17T14:47:47;13.85;;;12.65;;